Time;durP1;ratioP1;P1;durP2;ratioP2;P2;SDS_P1;SDS_P2;PMS_P1;PMS_P2;Temp;Humidity;BMP_temperature;BMP_pressure;BME280_temperature;BME280_humidity;BME280_pressure;Samples;Min_cycle;Max_cycle;Signal;HPM_P1;HPM_P2
2022/09/06 00:02:14;;;;;;;7.90;2.85;;;20.50;99.90;;;;;;5072267;28;20045;-70
2022/09/06 00:04:39;;;;;;;4.88;2.70;;;20.50;99.90;;;;;;5054100;28;20124;-70
2022/09/06 00:07:05;;;;;;;5.88;3.00;;;20.40;99.90;;;;;;5052411;28;20053;-70
2022/09/06 00:09:31;;;;;;;3.78;2.45;;;20.40;99.90;;;;;;5069846;28;20072;-70
2022/09/06 00:11:57;;;;;;;4.43;2.50;;;20.40;99.90;;;;;;5053440;28;20072;-69
2022/09/06 00:14:22;;;;;;;4.32;2.88;;;20.40;99.90;;;;;;5063792;28;20120;-70
2022/09/06 00:16:48;;;;;;;4.68;2.80;;;20.40;99.90;;;;;;5053302;28;20052;-70
2022/09/06 00:19:14;;;;;;;6.05;3.10;;;20.30;99.90;;;;;;5051298;28;20486;-70
2022/09/06 00:21:40;;;;;;;4.78;2.28;;;20.30;99.90;;;;;;5049427;28;20056;-69
2022/09/06 00:24:05;;;;;;;4.80;3.30;;;20.30;99.90;;;;;;5052257;28;20044;-71
2022/09/06 00:26:31;;;;;;;6.85;3.08;;;20.30;99.90;;;;;;5051050;28;20098;-70
2022/09/06 00:28:57;;;;;;;9.60;2.90;;;20.30;99.90;;;;;;5071864;28;20056;-69
2022/09/06 00:31:25;;;;;;;6.70;3.15;;;20.30;99.90;;;;;;5069553;28;20041;-69
2022/09/06 00:33:51;;;;;;;5.90;3.13;;;20.30;99.90;;;;;;5051388;28;20045;-70
2022/09/06 00:36:17;;;;;;;8.15;2.85;;;20.30;99.90;;;;;;5063059;28;20656;-69
2022/09/06 00:38:44;;;;;;;5.82;3.60;;;20.30;99.90;;;;;;5050628;28;20127;-70
2022/09/06 00:41:12;;;;;;;6.40;3.38;;;20.30;99.90;;;;;;5071194;28;20091;-69
2022/09/06 00:43:38;;;;;;;5.97;3.00;;;20.30;99.90;;;;;;5052953;28;20099;-69
2022/09/06 00:46:06;;;;;;;6.72;3.72;;;20.30;99.90;;;;;;5070850;28;20087;-70
2022/09/06 00:48:33;;;;;;;5.82;2.58;;;20.20;99.90;;;;;;5064464;28;20032;-70
2022/09/06 00:51:02;;;;;;;7.22;3.22;;;20.20;99.90;;;;;;5072270;28;20049;-69
2022/09/06 00:53:30;;;;;;;5.75;3.03;;;20.20;99.90;;;;;;5060014;28;20128;-70
2022/09/06 00:55:56;;;;;;;3.65;2.53;;;20.20;99.90;;;;;;5067183;28;20131;-69
2022/09/06 00:58:23;;;;;;;7.65;3.08;;;20.20;99.90;;;;;;5061592;28;20136;-69
2022/09/06 01:00:49;;;;;;;4.95;2.67;;;20.20;99.90;;;;;;5051962;28;20040;-69
2022/09/06 01:03:15;;;;;;;4.82;2.40;;;20.10;99.90;;;;;;5056071;28;20041;-69
2022/09/06 01:06:05;;;;;;;6.20;3.13;;;20.10;99.90;;;;;;5069739;28;20053;-69
2022/09/06 01:08:41;;;;;;;5.45;3.38;;;20.00;99.90;;;;;;5061147;28;20060;-70
2022/09/06 01:11:13;;;;;;;7.10;3.42;;;20.00;99.90;;;;;;5071019;28;20116;-69
2022/09/06 01:13:48;;;;;;;5.65;3.13;;;20.00;99.90;;;;;;5071948;28;20041;-69
2022/09/06 01:16:22;;;;;;;4.82;3.83;;;20.00;99.90;;;;;;5054238;28;20028;-70
2022/09/06 01:18:57;;;;;;;8.52;2.78;;;19.90;99.90;;;;;;5070805;28;20076;-70
2022/09/06 01:21:50;;;;;;;6.60;3.13;;;19.90;99.90;;;;;;5070519;28;20036;-70
2022/09/06 01:24:38;;;;;;;4.40;2.90;;;19.90;99.90;;;;;;5070737;28;20051;-70
2022/09/06 01:27:19;;;;;;;6.55;3.22;;;19.90;99.90;;;;;;5029200;28;20061;-70
2022/09/06 01:29:51;;;;;;;5.80;3.50;;;19.80;99.90;;;;;;5066839;28;20940;-70
2022/09/06 01:32:35;;;;;;;5.03;3.67;;;19.80;99.90;;;;;;5070808;28;20089;-70
2022/09/06 01:35:17;;;;;;;5.40;3.20;;;19.80;99.90;;;;;;5071511;28;20040;-70
2022/09/06 01:37:42;;;;;;;6.25;3.47;;;19.80;99.90;;;;;;5059827;28;20041;-69
2022/09/06 01:40:08;;;;;;;5.20;3.92;;;19.70;99.90;;;;;;5070429;28;20076;-69
2022/09/06 01:42:36;;;;;;;7.80;3.17;;;19.70;99.90;;;;;;5069935;28;20526;-69
2022/09/06 01:45:14;;;;;;;4.78;2.90;;;19.70;99.90;;;;;;5053959;28;20126;-69
2022/09/06 01:48:01;;;;;;;4.70;3.05;;;19.70;99.90;;;;;;5073333;28;20041;-69
2022/09/06 01:50:43;;;;;;;12.68;3.88;;;19.70;99.90;;;;;;5045114;28;20091;-70
2022/09/06 01:53:37;;;;;;;6.05;3.17;;;19.70;99.90;;;;;;5064859;28;20094;-69
2022/09/06 01:56:29;;;;;;;6.40;3.30;;;19.70;99.90;;;;;;5067449;28;20175;-69
2022/09/06 01:59:15;;;;;;;5.95;3.13;;;19.60;99.90;;;;;;5070926;28;20043;-69
2022/09/06 02:01:57;;;;;;;6.90;3.78;;;19.60;99.90;;;;;;5088861;28;20055;-69
2022/09/06 02:04:26;;;;;;;5.45;3.47;;;19.60;99.90;;;;;;5050318;28;20040;-69
2022/09/06 02:07:01;;;;;;;4.85;3.40;;;19.60;99.90;;;;;;5066996;28;20557;-70
2022/09/06 02:09:33;;;;;;;5.65;2.55;;;19.60;99.90;;;;;;5055416;28;20108;-69
2022/09/06 02:12:02;;;;;;;5.15;3.67;;;19.60;99.90;;;;;;5050536;28;20040;-69
2022/09/06 02:15:10;;;;;;;4.75;3.33;;;19.60;99.90;;;;;;5091538;28;20283;-69
2022/09/06 02:17:44;;;;;;;4.88;3.20;;;19.60;99.90;;;;;;5050366;28;20584;-70
2022/09/06 02:20:21;;;;;;;6.05;4.18;;;19.60;99.90;;;;;;5074847;28;20572;-69
2022/09/06 02:22:49;;;;;;;7.45;3.35;;;19.50;99.90;;;;;;5058814;28;20068;-69
2022/09/06 02:25:24;;;;;;;4.70;3.35;;;19.50;99.90;;;;;;5068322;28;21245;-70
2022/09/06 02:27:50;;;;;;;7.70;3.72;;;19.50;99.90;;;;;;5051609;28;20158;-69
2022/09/06 02:30:16;;;;;;;6.22;3.47;;;19.50;99.90;;;;;;5058458;28;20052;-70
2022/09/06 02:32:48;;;;;;;8.02;3.42;;;19.50;99.90;;;;;;5053192;28;20534;-70
2022/09/06 02:35:15;;;;;;;4.22;3.10;;;19.50;99.90;;;;;;5047716;28;20041;-69
2022/09/06 02:37:43;;;;;;;6.40;3.72;;;19.50;99.90;;;;;;5054255;28;20032;-70
2022/09/06 02:40:09;;;;;;;5.97;3.45;;;19.40;99.90;;;;;;5055443;28;21811;-69
2022/09/06 02:42:35;;;;;;;5.97;3.50;;;19.40;99.90;;;;;;5054423;28;20033;-70
2022/09/06 02:45:01;;;;;;;5.88;3.75;;;19.40;99.90;;;;;;5071294;28;20412;-69
2022/09/06 02:47:27;;;;;;;7.35;3.72;;;19.40;99.90;;;;;;5054598;28;20091;-70
2022/09/06 02:49:53;;;;;;;7.55;3.67;;;19.40;99.90;;;;;;5056170;28;20114;-70
2022/09/06 02:52:18;;;;;;;7.72;4.30;;;19.30;99.90;;;;;;5061933;28;20067;-70
2022/09/06 02:54:44;;;;;;;5.25;4.03;;;19.30;99.90;;;;;;5065149;28;20507;-69
2022/09/06 02:57:10;;;;;;;6.60;3.33;;;19.30;99.90;;;;;;5053215;28;20045;-69
2022/09/06 02:59:35;;;;;;;5.80;3.92;;;19.30;99.90;;;;;;5072053;28;20051;-69
2022/09/06 03:02:02;;;;;;;7.43;3.97;;;19.30;99.90;;;;;;5055178;28;20044;-69
2022/09/06 03:04:28;;;;;;;9.13;4.03;;;19.30;99.90;;;;;;5063115;28;20068;-70
2022/09/06 03:06:55;;;;;;;10.35;4.13;;;19.30;99.90;;;;;;5064635;28;20938;-69
2022/09/06 03:09:20;;;;;;;8.02;4.22;;;19.30;99.90;;;;;;5053207;28;20530;-69
2022/09/06 03:11:46;;;;;;;4.90;3.00;;;19.30;99.90;;;;;;5064744;28;20072;-69
2022/09/06 03:14:15;;;;;;;5.38;3.17;;;19.30;99.90;;;;;;5052881;28;20037;-70
2022/09/06 03:16:40;;;;;;;6.30;3.35;;;19.30;99.90;;;;;;5054362;28;20040;-69
2022/09/06 03:19:06;;;;;;;3.92;2.78;;;19.30;99.90;;;;;;5053590;28;20641;-69
2022/09/06 03:21:32;;;;;;;4.80;3.30;;;19.30;99.90;;;;;;5052178;28;20036;-69
2022/09/06 03:23:58;;;;;;;6.65;3.30;;;19.30;99.90;;;;;;5072432;28;20047;-69
2022/09/06 03:26:24;;;;;;;4.82;3.40;;;19.30;99.90;;;;;;5064642;28;20149;-69
2022/09/06 03:28:50;;;;;;;8.77;4.32;;;19.40;99.90;;;;;;5071226;28;20159;-69
2022/09/06 03:31:16;;;;;;;6.50;3.40;;;19.40;99.90;;;;;;5056320;28;20040;-69
2022/09/06 03:33:41;;;;;;;4.50;3.05;;;19.30;99.90;;;;;;5053089;28;20049;-69
2022/09/06 03:36:07;;;;;;;4.20;2.97;;;19.30;99.90;;;;;;5046749;28;20045;-69
2022/09/06 03:38:33;;;;;;;6.53;3.83;;;19.30;99.90;;;;;;5065615;28;20190;-70
2022/09/06 03:40:59;;;;;;;5.35;3.08;;;19.30;99.90;;;;;;5072137;28;20093;-69
2022/09/06 03:43:26;;;;;;;5.07;3.70;;;19.30;99.90;;;;;;5055780;28;20036;-69
2022/09/06 03:45:54;;;;;;;5.10;3.50;;;19.20;99.90;;;;;;5064407;28;20041;-70
2022/09/06 03:48:22;;;;;;;6.20;3.13;;;19.30;99.90;;;;;;5063942;28;20041;-69
2022/09/06 03:50:53;;;;;;;7.03;4.15;;;19.20;99.90;;;;;;5052961;28;20130;-69
2022/09/06 03:53:20;;;;;;;7.38;3.40;;;19.20;99.90;;;;;;5053029;28;20044;-69
2022/09/06 03:55:48;;;;;;;7.28;3.42;;;19.20;99.90;;;;;;5071924;28;20047;-70
2022/09/06 03:58:16;;;;;;;4.57;2.45;;;19.20;99.90;;;;;;5064629;28;20557;-69
2022/09/06 04:00:42;;;;;;;6.35;3.70;;;19.20;99.90;;;;;;5049932;28;20041;-70
2022/09/06 04:03:08;;;;;;;5.55;3.20;;;19.20;99.90;;;;;;5053731;28;20033;-69
2022/09/06 04:05:34;;;;;;;8.55;3.63;;;19.20;99.90;;;;;;5054939;28;20040;-70
2022/09/06 04:08:00;;;;;;;5.53;4.05;;;19.20;99.90;;;;;;5070163;28;20040;-69
2022/09/06 04:10:26;;;;;;;7.65;3.35;;;19.20;99.90;;;;;;5054881;28;20040;-69
2022/09/06 04:12:52;;;;;;;6.55;3.90;;;19.10;99.90;;;;;;5065443;28;20045;-69
2022/09/06 04:15:17;;;;;;;8.23;3.83;;;19.10;99.90;;;;;;5063209;28;20151;-69
2022/09/06 04:17:44;;;;;;;6.13;3.67;;;19.10;99.90;;;;;;5053739;28;20527;-70
2022/09/06 04:20:11;;;;;;;5.45;3.67;;;19.10;99.90;;;;;;5070026;28;20053;-72
2022/09/06 04:22:37;;;;;;;6.47;3.35;;;19.10;99.90;;;;;;5047004;28;20032;-69
2022/09/06 04:25:04;;;;;;;6.53;4.70;;;19.10;99.90;;;;;;5054827;28;20052;-69
2022/09/06 04:27:29;;;;;;;9.68;4.82;;;19.10;99.90;;;;;;5072585;28;20048;-69
2022/09/06 04:29:55;;;;;;;5.60;3.88;;;19.10;99.90;;;;;;5064155;28;20542;-69
2022/09/06 04:32:21;;;;;;;5.95;3.92;;;19.10;99.90;;;;;;5063570;28;20040;-69
2022/09/06 04:34:47;;;;;;;8.15;4.78;;;19.00;99.90;;;;;;5047612;28;21348;-69
2022/09/06 04:37:18;;;;;;;5.45;4.00;;;19.00;99.90;;;;;;5064701;28;20047;-69
2022/09/06 04:39:45;;;;;;;5.50;3.90;;;19.00;99.90;;;;;;5071406;28;20203;-69
2022/09/06 04:42:11;;;;;;;6.13;3.88;;;19.00;99.90;;;;;;5071202;28;20076;-69
2022/09/06 04:44:36;;;;;;;6.63;3.90;;;18.90;99.90;;;;;;5070233;28;20127;-69
2022/09/06 04:47:13;;;;;;;5.40;4.32;;;18.90;99.90;;;;;;5050283;28;20127;-69
2022/09/06 04:49:39;;;;;;;7.50;4.25;;;18.90;99.90;;;;;;5046892;28;20060;-69
2022/09/06 04:52:05;;;;;;;10.85;4.50;;;18.90;99.90;;;;;;5069469;28;20036;-70
2022/09/06 04:54:31;;;;;;;4.55;3.55;;;18.90;99.90;;;;;;5049180;28;20040;-69
2022/09/06 04:56:57;;;;;;;8.30;4.15;;;18.90;99.90;;;;;;5068220;28;20075;-69
2022/09/06 04:59:23;;;;;;;7.40;4.15;;;18.90;99.90;;;;;;5066239;28;21136;-70
2022/09/06 05:01:49;;;;;;;5.22;3.78;;;18.90;99.90;;;;;;5067258;28;20041;-69
2022/09/06 05:04:15;;;;;;;12.52;4.20;;;18.90;99.90;;;;;;5066384;28;20483;-69
2022/09/06 05:06:41;;;;;;;5.95;3.35;;;18.90;99.90;;;;;;5065115;28;20045;-69
2022/09/06 05:09:07;;;;;;;6.47;3.70;;;18.90;99.90;;;;;;5071325;28;20136;-71
2022/09/06 05:11:33;;;;;;;7.63;4.10;;;18.90;99.90;;;;;;5049392;28;20199;-69
2022/09/06 05:13:59;;;;;;;7.20;4.28;;;18.90;99.90;;;;;;5070548;28;20115;-73
2022/09/06 05:16:25;;;;;;;7.95;4.10;;;18.90;99.90;;;;;;5067934;28;20041;-72
2022/09/06 05:18:51;;;;;;;5.53;4.18;;;18.70;99.90;;;;;;5068777;28;20052;-70
2022/09/06 05:21:19;;;;;;;9.05;4.18;;;18.90;99.90;;;;;;5071323;28;20168;-76
2022/09/06 05:23:45;;;;;;;6.80;3.97;;;18.80;99.90;;;;;;5031643;28;20575;-70
2022/09/06 05:26:11;;;;;;;6.50;4.82;;;18.90;99.90;;;;;;5060274;28;20072;-70
2022/09/06 05:28:36;;;;;;;6.10;4.57;;;18.80;99.90;;;;;;5051216;28;20048;-70
2022/09/06 05:31:10;;;;;;;8.00;4.65;;;18.90;99.90;;;;;;5057200;28;20923;-70
2022/09/06 05:33:37;;;;;;;5.93;4.30;;;18.90;99.90;;;;;;5057470;28;20055;-70
2022/09/06 05:36:06;;;;;;;7.72;3.72;;;18.90;99.90;;;;;;5055975;28;20041;-70
2022/09/06 05:38:31;;;;;;;8.13;4.35;;;18.90;99.90;;;;;;5053418;28;20060;-70
2022/09/06 05:40:57;;;;;;;6.65;4.25;;;18.90;99.90;;;;;;5057004;28;20147;-70
2022/09/06 05:43:23;;;;;;;6.15;3.85;;;18.90;99.90;;;;;;5057512;28;20493;-70
2022/09/06 05:45:51;;;;;;;6.60;4.30;;;19.00;99.90;;;;;;5077321;28;20048;-71
2022/09/06 05:48:18;;;;;;;8.68;4.90;;;19.20;99.90;;;;;;5075437;28;20172;-72
2022/09/06 05:50:43;;;;;;;5.75;4.40;;;19.10;99.90;;;;;;5060075;28;20040;-70
2022/09/06 05:53:09;;;;;;;8.20;3.88;;;19.10;99.90;;;;;;5059092;28;20040;-74
2022/09/06 05:55:35;;;;;;;9.13;4.30;;;19.10;99.90;;;;;;5057538;28;20072;-71
2022/09/06 05:58:03;;;;;;;7.55;4.35;;;19.10;99.90;;;;;;5067054;28;20160;-75
2022/09/06 06:00:29;;;;;;;8.23;4.70;;;19.10;99.90;;;;;;5059092;28;20589;-70
2022/09/06 06:02:55;;;;;;;14.85;5.22;;;19.10;99.90;;;;;;5064403;28;20049;-71
2022/09/06 06:05:21;;;;;;;9.55;4.82;;;19.10;99.90;;;;;;5053186;28;20052;-69
2022/09/06 06:07:46;;;;;;;10.60;5.93;;;19.10;99.90;;;;;;5051311;28;20126;-70
2022/09/06 06:10:12;;;;;;;11.30;6.70;;;19.10;99.90;;;;;;5050170;28;20095;-70
2022/09/06 06:12:38;;;;;;;12.13;7.40;;;19.10;99.90;;;;;;5074359;28;20530;-69
2022/09/06 06:15:04;;;;;;;10.65;7.20;;;19.10;99.90;;;;;;5052992;28;20040;-69
2022/09/06 06:17:30;;;;;;;9.48;7.18;;;19.10;99.90;;;;;;5065095;28;20059;-70
2022/09/06 06:19:57;;;;;;;11.88;7.28;;;19.10;99.90;;;;;;5056445;28;20057;-70
2022/09/06 06:22:25;;;;;;;12.02;7.20;;;19.10;99.90;;;;;;5054326;28;20044;-72
2022/09/06 06:24:51;;;;;;;15.40;7.65;;;19.10;99.90;;;;;;5050732;28;20556;-68
2022/09/06 06:27:17;;;;;;;13.27;8.60;;;19.20;99.90;;;;;;5062248;28;20056;-69
2022/09/06 06:29:42;;;;;;;14.25;8.93;;;19.20;99.90;;;;;;5065714;28;20083;-68
2022/09/06 06:32:08;;;;;;;10.80;7.05;;;19.20;99.90;;;;;;5070203;28;20041;-69
2022/09/06 06:34:34;;;;;;;13.18;6.85;;;19.20;99.90;;;;;;5063617;28;20062;-68
2022/09/06 06:36:59;;;;;;;15.75;7.03;;;19.20;99.90;;;;;;5073238;28;20051;-68
2022/09/06 06:39:25;;;;;;;14.48;7.15;;;19.20;99.90;;;;;;5055454;28;20037;-68
2022/09/06 06:41:52;;;;;;;11.77;6.55;;;19.30;99.90;;;;;;5047730;28;20094;-68
2022/09/06 06:44:17;;;;;;;10.38;6.25;;;19.30;99.90;;;;;;5067824;28;21390;-69
2022/09/06 06:46:43;;;;;;;9.63;6.25;;;19.40;99.90;;;;;;5071273;28;20121;-69
2022/09/06 06:49:10;;;;;;;8.10;6.00;;;19.50;99.90;;;;;;5072201;28;20064;-69
2022/09/06 06:51:36;;;;;;;11.35;5.40;;;19.50;99.90;;;;;;5054237;28;20094;-70
2022/09/06 06:54:03;;;;;;;8.60;3.10;;;19.60;99.90;;;;;;5071681;28;20076;-69
2022/09/06 06:56:31;;;;;;;7.93;4.32;;;19.60;99.90;;;;;;5069587;28;20037;-69
2022/09/06 06:58:59;;;;;;;6.00;3.88;;;19.60;99.90;;;;;;5085630;28;20037;-70
2022/09/06 07:01:26;;;;;;;9.30;3.90;;;19.70;99.90;;;;;;5063789;28;20041;-69
2022/09/06 07:03:53;;;;;;;6.22;3.50;;;19.70;99.90;;;;;;5049245;28;20605;-69
2022/09/06 07:06:20;;;;;;;5.53;3.38;;;19.70;99.90;;;;;;5063474;28;20465;-69
2022/09/06 07:08:46;;;;;;;7.32;3.25;;;19.80;99.90;;;;;;5057218;28;20047;-69
2022/09/06 07:11:14;;;;;;;7.90;3.80;;;19.80;99.90;;;;;;5055383;28;20635;-70
2022/09/06 07:13:40;;;;;;;8.40;4.28;;;19.90;99.90;;;;;;5062124;28;20056;-69
2022/09/06 07:16:21;;;;;;;6.07;3.28;;;19.90;99.90;;;;;;5051664;28;20036;-69
2022/09/06 07:18:51;;;;;;;6.32;3.13;;;19.90;99.90;;;;;;5065654;28;20196;-69
2022/09/06 07:21:27;;;;;;;6.53;3.20;;;20.00;99.90;;;;;;5073277;28;20039;-69
2022/09/06 07:23:53;;;;;;;9.20;4.05;;;19.90;99.90;;;;;;5052802;28;20044;-70
2022/09/06 07:26:25;;;;;;;9.15;4.43;;;19.90;99.90;;;;;;5051682;28;20071;-70
2022/09/06 07:28:52;;;;;;;6.82;3.33;;;20.00;99.90;;;;;;5089523;28;20124;-69
2022/09/06 07:31:18;;;;;;;4.10;3.47;;;20.10;99.90;;;;;;5062217;28;20048;-69
2022/09/06 07:33:44;;;;;;;4.32;2.75;;;20.20;99.90;;;;;;5053575;28;20048;-69
2022/09/06 07:36:10;;;;;;;6.68;3.35;;;20.20;99.90;;;;;;5073664;28;20040;-69
2022/09/06 07:38:36;;;;;;;5.80;3.45;;;20.20;99.90;;;;;;5048640;28;20046;-69
2022/09/06 07:41:05;;;;;;;6.47;3.67;;;20.20;99.90;;;;;;5055676;28;20044;-69
2022/09/06 07:43:31;;;;;;;7.88;4.07;;;20.20;99.90;;;;;;5072101;28;20044;-69
2022/09/06 07:46:16;;;;;;;4.93;2.97;;;20.10;99.90;;;;;;5068520;28;20097;-69
2022/09/06 07:48:45;;;;;;;8.70;3.30;;;20.00;99.90;;;;;;5051919;28;20447;-69
2022/09/06 07:51:19;;;;;;;5.88;3.20;;;19.90;99.90;;;;;;5057573;28;21282;-69
2022/09/06 07:53:56;;;;;;;5.00;2.83;;;19.90;99.90;;;;;;5058450;28;20047;-69
2022/09/06 07:56:22;;;;;;;9.95;2.97;;;19.80;99.90;;;;;;5055513;28;20103;-70
2022/09/06 07:58:49;;;;;;;13.27;3.08;;;19.90;99.90;;;;;;5074306;28;20044;-69
2022/09/06 08:01:35;;;;;;;7.07;4.10;;;19.90;99.90;;;;;;5057163;28;20497;-69
2022/09/06 08:04:04;;;;;;;7.03;3.28;;;19.80;99.90;;;;;;5066548;28;20131;-68
2022/09/06 08:06:32;;;;;;;6.80;3.15;;;19.80;99.90;;;;;;5055933;28;20045;-69
2022/09/06 08:08:59;;;;;;;7.38;3.75;;;19.80;99.90;;;;;;5055410;28;20056;-69
2022/09/06 08:11:27;;;;;;;6.38;3.72;;;19.80;99.90;;;;;;5054651;28;20045;-69
2022/09/06 08:13:54;;;;;;;5.03;2.65;;;19.80;99.90;;;;;;5057607;28;20045;-69
2022/09/06 08:16:22;;;;;;;5.55;2.88;;;19.80;99.90;;;;;;5064556;28;20124;-69
2022/09/06 08:18:52;;;;;;;5.82;2.85;;;19.90;99.90;;;;;;5072187;28;20162;-69
2022/09/06 08:21:19;;;;;;;4.93;3.00;;;19.90;99.90;;;;;;5054063;28;20066;-69
2022/09/06 08:23:51;;;;;;;8.00;3.33;;;19.90;99.90;;;;;;5061860;28;20043;-69
2022/09/06 08:26:19;;;;;;;7.38;3.40;;;20.00;99.90;;;;;;5051207;28;20040;-69
2022/09/06 08:28:45;;;;;;;4.70;2.47;;;20.20;99.90;;;;;;5051863;28;20714;-69
2022/09/06 08:31:13;;;;;;;7.75;2.85;;;20.20;99.90;;;;;;5049479;28;20041;-69
2022/09/06 08:33:40;;;;;;;6.78;2.15;;;20.30;99.90;;;;;;5046876;28;20103;-69
2022/09/06 08:36:07;;;;;;;5.38;3.33;;;20.30;99.90;;;;;;5055672;28;20049;-69
2022/09/06 08:38:33;;;;;;;8.70;2.85;;;20.30;99.90;;;;;;5050422;28;20730;-69
2022/09/06 08:41:28;;;;;;;6.15;2.40;;;20.40;99.90;;;;;;5069314;28;20135;-69
2022/09/06 08:43:56;;;;;;;5.18;2.85;;;20.50;99.90;;;;;;5037114;28;20063;-69
2022/09/06 08:46:45;;;;;;;3.83;2.28;;;20.60;99.90;;;;;;5064889;28;20103;-70
2022/09/06 08:49:11;;;;;;;8.88;3.47;;;20.80;99.90;;;;;;5056419;28;20049;-69
2022/09/06 08:51:40;;;;;;;5.85;2.50;;;21.00;99.90;;;;;;5071259;28;20037;-69
2022/09/06 08:54:31;;;;;;;5.82;2.35;;;21.10;99.90;;;;;;5074476;28;20068;-69
2022/09/06 08:57:15;;;;;;;5.57;2.35;;;21.20;99.90;;;;;;5064137;28;20064;-69
2022/09/06 08:59:42;;;;;;;4.82;2.22;;;21.20;99.90;;;;;;5057593;28;20040;-69
2022/09/06 09:02:08;;;;;;;4.00;2.33;;;21.30;99.90;;;;;;5050655;28;20052;-69
2022/09/06 09:04:37;;;;;;;6.47;3.15;;;21.30;99.90;;;;;;5083785;28;20044;-71
2022/09/06 09:07:33;;;;;;;4.07;2.47;;;21.40;99.90;;;;;;5070844;28;20124;-70
2022/09/06 09:10:05;;;;;;;6.57;2.45;;;21.40;99.90;;;;;;5073101;28;20194;-69
2022/09/06 09:12:33;;;;;;;5.93;2.60;;;21.50;99.90;;;;;;5055903;28;20036;-69
2022/09/06 09:15:05;;;;;;;7.28;2.47;;;21.50;99.90;;;;;;5073506;28;20557;-70
2022/09/06 09:17:31;;;;;;;5.75;2.10;;;21.50;99.90;;;;;;5056193;28;20045;-69
2022/09/06 09:19:57;;;;;;;5.00;1.95;;;21.40;99.90;;;;;;5055503;28;20110;-69
2022/09/06 09:22:24;;;;;;;5.93;2.15;;;21.40;99.90;;;;;;5074513;28;20620;-70
2022/09/06 09:24:51;;;;;;;6.20;2.35;;;21.50;99.90;;;;;;5055558;28;20056;-69
2022/09/06 09:27:27;;;;;;;6.13;2.00;;;21.60;99.90;;;;;;5075860;28;20040;-69
2022/09/06 09:29:52;;;;;;;6.10;2.97;;;21.60;99.90;;;;;;5051383;28;20055;-70
2022/09/06 09:32:44;;;;;;;6.53;2.00;;;21.50;99.90;;;;;;5073632;28;20040;-69
2022/09/06 09:35:22;;;;;;;7.47;2.58;;;21.50;99.90;;;;;;5074306;28;20798;-69
2022/09/06 09:37:58;;;;;;;4.40;1.80;;;21.60;99.90;;;;;;5073187;28;20656;-69
2022/09/06 09:40:24;;;;;;;4.70;1.52;;;21.60;99.90;;;;;;5072911;28;20037;-69
2022/09/06 09:42:51;;;;;;;5.35;2.42;;;21.70;99.90;;;;;;5051712;28;20032;-69
2022/09/06 09:45:20;;;;;;;8.10;3.20;;;21.80;99.90;;;;;;5056887;28;20162;-69
2022/09/06 09:47:46;;;;;;;5.90;1.80;;;21.90;99.90;;;;;;5065219;28;20794;-69
2022/09/06 09:50:26;;;;;;;4.50;1.85;;;22.10;99.90;;;;;;5074169;28;20048;-69
2022/09/06 09:52:52;;;;;;;7.03;1.88;;;22.10;99.90;;;;;;5055355;28;20055;-69
2022/09/06 09:55:23;;;;;;;6.40;1.88;;;22.10;99.90;;;;;;5056866;28;20072;-69
2022/09/06 09:57:52;;;;;;;3.75;2.28;;;22.10;99.90;;;;;;5071592;28;20048;-70
2022/09/06 10:00:39;;;;;;;3.08;1.67;;;22.20;99.90;;;;;;5069380;28;20474;-69
2022/09/06 10:03:16;;;;;;;4.68;2.10;;;22.30;99.90;;;;;;5057373;28;20044;-69
2022/09/06 10:05:55;;;;;;;3.35;1.90;;;22.30;99.90;;;;;;5070457;28;20078;-69
2022/09/06 10:08:23;;;;;;;5.72;3.38;;;22.40;99.90;;;;;;5063914;28;21220;-69
2022/09/06 10:10:48;;;;;;;6.25;2.83;;;22.40;99.90;;;;;;5065953;28;20041;-69
2022/09/06 10:13:22;;;;;;;3.78;1.50;;;22.40;99.90;;;;;;5056570;28;20045;-69
2022/09/06 10:15:50;;;;;;;5.95;1.50;;;22.50;99.90;;;;;;5064595;28;20056;-69
2022/09/06 10:18:17;;;;;;;3.38;1.27;;;22.60;99.90;;;;;;5054659;28;20044;-69
2022/09/06 10:20:51;;;;;;;4.88;1.90;;;22.70;99.90;;;;;;5065049;28;20500;-69
2022/09/06 10:23:51;;;;;;;6.05;2.08;;;22.70;99.90;;;;;;5065140;28;20571;-69
2022/09/06 10:26:36;;;;;;;5.40;1.55;;;22.90;99.90;;;;;;5069248;28;20360;-69
2022/09/06 10:29:10;;;;;;;3.90;1.80;;;22.90;99.90;;;;;;5069391;28;20045;-69
2022/09/06 10:31:49;;;;;;;5.90;1.48;;;23.00;99.90;;;;;;5050763;28;20914;-69
2022/09/06 10:34:59;;;;;;;4.13;2.05;;;23.10;99.90;;;;;;5053011;28;20075;-69
2022/09/06 10:38:09;;;;;;;6.60;1.35;;;23.10;99.90;;;;;;5066128;28;20561;-69
2022/09/06 10:40:55;;;;;;;4.53;1.13;;;23.10;99.90;;;;;;5047144;28;20118;-70
2022/09/06 10:43:23;;;;;;;3.97;1.10;;;23.00;99.90;;;;;;5058730;28;20548;-70
2022/09/06 10:46:03;;;;;;;3.08;1.20;;;23.00;99.90;;;;;;5056819;28;20044;-70
2022/09/06 10:48:32;;;;;;;3.08;1.17;;;23.00;99.90;;;;;;5074668;28;20047;-70
2022/09/06 10:50:58;;;;;;;2.38;1.50;;;23.10;99.90;;;;;;5072825;28;20048;-71
2022/09/06 10:53:56;;;;;;;3.30;1.00;;;23.10;99.90;;;;;;5086712;28;20040;-70
2022/09/06 10:56:46;;;;;;;3.85;1.92;;;23.00;99.90;;;;;;5044150;28;20138;-71
2022/09/06 10:59:21;;;;;;;3.53;1.33;;;22.90;99.90;;;;;;5069915;28;20139;-71
2022/09/06 11:01:53;;;;;;;1.88;1.20;;;23.00;99.90;;;;;;5063577;28;20063;-70
2022/09/06 11:04:26;;;;;;;;;;;23.10;99.90;;;;;;5064766;28;20068;-70
2022/09/06 11:06:58;;;;;;;5.75;1.38;;;23.10;99.90;;;;;;5091508;28;20487;-70
2022/09/06 11:09:35;;;;;;;5.45;1.55;;;23.20;99.90;;;;;;5075315;28;20080;-71
2022/09/06 11:12:33;;;;;;;2.35;1.38;;;23.20;99.90;;;;;;5067828;28;20139;-70
2022/09/06 11:15:05;;;;;;;2.70;1.27;;;23.10;99.90;;;;;;5075778;28;20041;-71
2022/09/06 11:17:40;;;;;;;6.50;2.33;;;23.20;99.90;;;;;;5056406;28;20510;-70
2022/09/06 11:20:31;;;;;;;6.45;1.88;;;23.20;99.90;;;;;;5072971;28;20057;-70
2022/09/06 11:23:12;;;;;;;3.92;2.08;;;23.10;99.90;;;;;;5040165;28;20041;-71
2022/09/06 11:25:49;;;;;;;5.43;1.70;;;23.00;99.90;;;;;;5075830;28;20048;-71
2022/09/06 11:28:23;;;;;;;4.65;1.88;;;22.90;99.90;;;;;;5056153;28;20064;-70
2022/09/06 11:30:53;;;;;;;3.17;1.85;;;22.70;99.90;;;;;;5072810;28;20554;-71
2022/09/06 11:33:29;;;;;;;6.07;2.40;;;22.60;99.90;;;;;;5067878;28;20105;-70
2022/09/06 11:36:17;;;;;;;2.88;1.52;;;22.60;99.90;;;;;;5048559;28;20045;-71
2022/09/06 11:38:59;;;;;;;3.72;1.60;;;22.50;99.90;;;;;;5056422;28;20033;-70
2022/09/06 11:41:41;;;;;;;3.28;1.58;;;22.50;99.90;;;;;;5075691;28;20055;-70
2022/09/06 11:44:10;;;;;;;5.10;1.83;;;22.50;99.90;;;;;;5075025;28;20587;-71
2022/09/06 11:46:55;;;;;;;5.90;1.98;;;22.40;99.90;;;;;;5055115;28;20033;-70
2022/09/06 11:49:30;;;;;;;6.78;2.28;;;22.40;99.90;;;;;;5073221;28;20593;-71
2022/09/06 11:51:56;;;;;;;4.90;1.92;;;22.40;99.90;;;;;;5046669;28;20539;-75
2022/09/06 11:54:25;;;;;;;3.92;1.70;;;22.40;99.90;;;;;;5053208;28;20045;-72
2022/09/06 11:57:07;;;;;;;3.70;1.60;;;22.60;99.90;;;;;;5051132;28;20037;-72
2022/09/06 11:59:59;;;;;;;3.47;2.20;;;22.90;99.90;;;;;;5061432;28;20144;-72
2022/09/06 12:02:28;;;;;;;;;;;23.10;99.90;;;;;;5044321;28;20044;-72
2022/09/06 12:05:00;;;;;;;2.97;1.65;;;23.10;99.90;;;;;;5070233;28;19960;-72
2022/09/06 12:07:27;;;;;;;3.33;1.67;;;23.10;99.90;;;;;;5072933;28;20471;-72
2022/09/06 12:09:53;;;;;;;6.53;2.13;;;23.00;99.90;;;;;;5071164;28;20051;-72
2022/09/06 12:12:39;;;;;;;3.55;2.03;;;23.00;99.90;;;;;;5053781;28;20052;-72
2022/09/06 12:15:29;;;;;;;4.45;1.77;;;23.20;99.90;;;;;;5043782;28;20041;-72
2022/09/06 12:17:57;;;;;;;5.03;1.83;;;23.40;99.90;;;;;;5048308;28;20044;-72
2022/09/06 12:20:50;;;;;;;4.95;1.63;;;23.50;99.90;;;;;;5062192;28;20545;-72
2022/09/06 12:23:34;;;;;;;3.45;1.65;;;23.50;99.90;;;;;;5051525;28;20151;-72
2022/09/06 12:26:22;;;;;;;5.90;1.55;;;23.40;99.90;;;;;;5052213;28;20136;-76
2022/09/06 12:28:50;;;;;;;3.65;1.38;;;23.40;99.90;;;;;;5066695;28;20097;-73
2022/09/06 12:31:33;;;;;;;1.58;1.05;;;23.30;99.90;;;;;;5069363;28;20044;-73
2022/09/06 12:34:06;;;;;;;2.75;1.15;;;23.20;99.90;;;;;;5053813;28;20048;-72
2022/09/06 12:36:32;;;;;;;2.75;1.30;;;23.10;99.90;;;;;;5052882;28;20040;-73
2022/09/06 12:39:12;;;;;;;5.05;1.45;;;23.00;99.90;;;;;;5053094;28;20055;-73
2022/09/06 12:41:41;;;;;;;2.65;1.25;;;23.30;99.90;;;;;;5053336;28;20596;-72
2022/09/06 12:44:07;;;;;;;2.50;1.30;;;23.00;99.90;;;;;;5054508;28;20049;-72
2022/09/06 12:46:34;;;;;;;3.55;1.50;;;23.00;99.90;;;;;;5061849;28;21110;-72
2022/09/06 12:49:03;;;;;;;2.53;1.50;;;22.90;99.90;;;;;;5073598;28;21276;-72
2022/09/06 12:51:29;;;;;;;3.28;1.15;;;23.00;99.90;;;;;;5061303;28;20041;-72
2022/09/06 12:54:02;;;;;;;3.75;0.95;;;22.90;99.90;;;;;;5065287;28;21611;-72
2022/09/06 12:56:31;;;;;;;3.28;1.33;;;23.00;99.90;;;;;;5070636;28;20041;-72
2022/09/06 12:59:23;;;;;;;3.10;1.48;;;23.00;99.90;;;;;;5049395;28;20079;-72
2022/09/06 13:02:00;;;;;;;3.60;1.65;;;23.00;99.90;;;;;;5050894;28;20056;-72
2022/09/06 13:04:29;;;;;;;2.75;1.48;;;23.10;99.90;;;;;;5070178;28;20079;-72
2022/09/06 13:06:56;;;;;;;2.55;1.05;;;23.10;99.90;;;;;;5068438;28;20194;-71